Time;durP1;ratioP1;P1;durP2;ratioP2;P2;SDS_P1;SDS_P2;PMS_P1;PMS_P2;Temp;Humidity;BMP_temperature;BMP_pressure;BME280_temperature;BME280_humidity;BME280_pressure;Samples;Min_cycle;Max_cycle;Signal;HPM_P1;HPM_P2
2021/01/15 00:01:32;;;;;;;19.95;11.93;;;;;;;;;;5120063;28;20036;-79
2021/01/15 00:03:57;;;;;;;17.17;11.48;;;;;;;;;;5120536;28;20042;-78
2021/01/15 00:06:24;;;;;;;18.40;11.25;;;;;;;;;;5120290;28;20459;-78
2021/01/15 00:08:51;;;;;;;20.65;13.02;;;;;;;;;;5119894;28;20031;-78
2021/01/15 00:11:29;;;;;;;20.80;13.10;;;;;;;;;;5119791;28;20089;-78
2021/01/15 00:13:56;;;;;;;20.50;13.57;;;;;;;;;;5101204;28;20066;-78
2021/01/15 00:16:29;;;;;;;21.98;14.10;;;;;;;;;;5099571;28;20035;-78
2021/01/15 00:18:56;;;;;;;19.38;13.30;;;;;;;;;;5097309;28;20036;-78
2021/01/15 00:21:29;;;;;;;18.23;11.20;;;;;;;;;;5097615;28;20031;-78
2021/01/15 00:24:00;;;;;;;17.45;11.55;;;;;;;;;;5099160;28;20028;-78
2021/01/15 00:26:27;;;;;;;18.58;11.57;;;;;;;;;;5099242;28;20070;-78
2021/01/15 00:28:54;;;;;;;19.02;11.85;;;;;;;;;;5098324;28;20040;-78
2021/01/15 00:31:20;;;;;;;21.23;12.00;;;;;;;;;;5098169;28;20063;-78
2021/01/15 00:33:45;;;;;;;21.00;13.23;;;;;;;;;;5099003;28;20032;-78
2021/01/15 00:36:11;;;;;;;22.63;12.70;;;;;;;;;;5098455;28;20088;-78
2021/01/15 00:38:37;;;;;;;17.55;11.82;;;;;;;;;;5100423;28;20114;-78
2021/01/15 00:41:08;;;;;;;20.77;12.25;;;;;;;;;;5100288;28;20504;-78
2021/01/15 00:43:33;;;;;;;22.75;13.43;;;;;;;;;;5083732;28;20060;-79
2021/01/15 00:45:59;;;;;;;23.02;13.88;;;;;;;;;;5079254;28;20048;-79
2021/01/15 00:48:25;;;;;;;20.10;12.80;;;;;;;;;;5079461;28;20033;-78
2021/01/15 00:50:50;;;;;;;21.25;13.35;;;;;;;;;;5078178;28;20482;-79
2021/01/15 00:53:16;;;;;;;27.95;15.05;;;;;;;;;;5076372;28;20028;-78
2021/01/15 00:55:42;;;;;;;22.65;13.65;;;;;;;;;;5076389;28;20139;-79
2021/01/15 00:58:11;;;;;;;25.38;14.35;;;;;;;;;;5077013;28;20608;-78
2021/01/15 01:00:37;;;;;;;24.88;14.75;;;;;;;;;;5077789;28;20047;-78
2021/01/15 01:03:10;;;;;;;25.13;15.45;;;;;;;;;;5076117;28;20549;-78
2021/01/15 01:05:36;;;;;;;21.38;13.18;;;;;;;;;;5077813;28;20119;-78
2021/01/15 01:08:01;;;;;;;25.08;13.98;;;;;;;;;;5076488;28;20051;-79
2021/01/15 01:10:27;;;;;;;24.35;13.00;;;;;;;;;;5078544;28;20036;-78
2021/01/15 01:12:52;;;;;;;20.42;13.25;;;;;;;;;;5095466;28;20039;-79
2021/01/15 01:15:18;;;;;;;23.50;14.20;;;;;;;;;;5119013;28;20043;-78
2021/01/15 01:17:43;;;;;;;23.15;13.10;;;;;;;;;;5118519;28;20382;-79
2021/01/15 01:20:10;;;;;;;24.20;13.05;;;;;;;;;;5119289;28;20078;-79
2021/01/15 01:22:37;;;;;;;28.02;12.48;;;;;;;;;;5118526;28;20446;-79
2021/01/15 01:25:03;;;;;;;19.73;11.82;;;;;;;;;;5118757;28;20027;-78
2021/01/15 01:27:29;;;;;;;20.30;12.70;;;;;;;;;;5118403;28;20039;-78
2021/01/15 01:29:54;;;;;;;24.33;13.57;;;;;;;;;;5118049;28;20092;-78
2021/01/15 01:32:19;;;;;;;22.85;13.20;;;;;;;;;;5118393;28;20400;-78
2021/01/15 01:34:45;;;;;;;23.33;13.38;;;;;;;;;;5118475;28;20104;-78
2021/01/15 01:37:10;;;;;;;21.30;13.57;;;;;;;;;;5118285;28;20059;-78
2021/01/15 01:39:35;;;;;;;26.67;14.63;;;;;;;;;;5117997;28;20047;-78
2021/01/15 01:42:01;;;;;;;23.00;13.45;;;;;;;;;;5118055;28;20031;-78
2021/01/15 01:44:26;;;;;;;22.13;13.02;;;;;;;;;;5096408;28;20071;-79
2021/01/15 01:46:53;;;;;;;24.50;12.63;;;;;;;;;;5097618;28;20032;-79
2021/01/15 01:49:18;;;;;;;23.95;13.73;;;;;;;;;;5097422;28;20035;-79
2021/01/15 01:51:45;;;;;;;27.90;14.05;;;;;;;;;;5097439;28;20032;-79
2021/01/15 01:54:11;;;;;;;27.25;14.70;;;;;;;;;;5097113;28;20024;-79
2021/01/15 01:56:36;;;;;;;22.80;12.93;;;;;;;;;;5096932;28;20066;-79
2021/01/15 01:59:02;;;;;;;22.20;12.57;;;;;;;;;;5096502;28;20031;-78
2021/01/15 02:01:27;;;;;;;21.75;12.52;;;;;;;;;;5097032;28;20039;-79
2021/01/15 02:04:05;;;;;;;21.67;13.00;;;;;;;;;;5097039;28;20095;-79
2021/01/15 02:06:35;;;;;;;22.90;11.98;;;;;;;;;;5095077;28;20031;-79
2021/01/15 02:09:05;;;;;;;26.00;14.02;;;;;;;;;;5094893;28;20028;-78
2021/01/15 02:11:33;;;;;;;20.08;12.45;;;;;;;;;;5094575;28;20040;-79
2021/01/15 02:14:10;;;;;;;22.45;12.73;;;;;;;;;;5080447;28;20062;-79
2021/01/15 02:16:36;;;;;;;24.05;13.35;;;;;;;;;;5076080;28;20092;-79
2021/01/15 02:19:31;;;;;;;26.15;14.95;;;;;;;;;;5075569;28;20044;-79
2021/01/15 02:22:30;;;;;;;25.88;13.27;;;;;;;;;;5074634;28;20095;-79
2021/01/15 02:24:58;;;;;;;23.00;13.55;;;;;;;;;;5075144;28;20039;-80
2021/01/15 02:27:42;;;;;;;22.50;12.55;;;;;;;;;;5076722;28;20048;-80
2021/01/15 02:30:23;;;;;;;20.85;12.85;;;;;;;;;;5077696;28;20032;-80
2021/01/15 02:33:27;;;;;;;25.73;11.75;;;;;;;;;;5078813;28;20028;-78
2021/01/15 02:36:13;;;;;;;19.23;12.32;;;;;;;;;;5077335;28;20440;-79
2021/01/15 02:38:55;;;;;;;20.53;10.97;;;;;;;;;;5076480;28;20032;-79
2021/01/15 02:41:26;;;;;;;28.90;13.05;;;;;;;;;;5078164;28;20278;-79
2021/01/15 02:44:05;;;;;;;23.23;12.95;;;;;;;;;;5104982;28;20039;-80
2021/01/15 02:46:49;;;;;;;19.02;11.85;;;;;;;;;;5117079;28;20027;-79
2021/01/15 02:49:16;;;;;;;24.15;14.50;;;;;;;;;;5116623;28;20101;-79
2021/01/15 02:51:41;;;;;;;21.90;13.73;;;;;;;;;;5116614;28;20039;-79
2021/01/15 02:54:07;;;;;;;22.35;12.25;;;;;;;;;;5117462;28;20480;-79
2021/01/15 02:56:33;;;;;;;21.88;11.75;;;;;;;;;;5116209;28;20165;-79
2021/01/15 02:58:59;;;;;;;24.00;13.27;;;;;;;;;;5117403;28;20058;-79
2021/01/15 03:01:30;;;;;;;21.08;12.55;;;;;;;;;;5117363;28;20032;-79
2021/01/15 03:04:18;;;;;;;24.80;13.18;;;;;;;;;;5117339;28;20456;-79
2021/01/15 03:06:51;;;;;;;19.38;12.13;;;;;;;;;;5119683;28;20039;-79
2021/01/15 03:09:17;;;;;;;19.05;12.45;;;;;;;;;;5123714;27;20088;-79
2021/01/15 03:11:45;;;;;;;21.38;11.57;;;;;;;;;;5123956;27;20031;-78
2021/01/15 03:14:13;;;;;;;21.90;13.10;;;;;;;;;;5104706;27;20043;-76
2021/01/15 03:16:41;;;;;;;18.17;11.65;;;;;;;;;;5102672;28;20028;-79
2021/01/15 03:19:06;;;;;;;18.90;12.93;;;;;;;;;;5102784;28;20035;-80
2021/01/15 03:21:37;;;;;;;24.88;12.38;;;;;;;;;;5101951;28;20470;-81
2021/01/15 03:24:03;;;;;;;20.08;12.43;;;;;;;;;;5103220;28;20028;-80
2021/01/15 03:26:29;;;;;;;17.95;12.18;;;;;;;;;;5100671;28;20051;-80
2021/01/15 03:28:54;;;;;;;22.27;12.95;;;;;;;;;;5101582;28;20024;-80
2021/01/15 03:31:19;;;;;;;23.20;13.63;;;;;;;;;;5104022;28;20525;-78
2021/01/15 03:33:45;;;;;;;23.92;13.27;;;;;;;;;;5103428;28;20039;-80
2021/01/15 03:36:10;;;;;;;20.33;12.60;;;;;;;;;;5103954;28;20046;-79
2021/01/15 03:38:36;;;;;;;22.35;13.10;;;;;;;;;;5103351;28;20070;-80
2021/01/15 03:41:01;;;;;;;22.02;13.35;;;;;;;;;;5102288;28;20070;-80
2021/01/15 03:43:26;;;;;;;21.25;13.57;;;;;;;;;;5102120;28;20040;-80
2021/01/15 03:45:52;;;;;;;18.30;12.75;;;;;;;;;;5100235;28;20079;-80
2021/01/15 03:48:21;;;;;;;20.08;13.02;;;;;;;;;;5101330;28;20115;-80
2021/01/15 03:50:47;;;;;;;19.77;11.80;;;;;;;;;;5102396;28;20424;-78
2021/01/15 03:53:14;;;;;;;21.77;12.63;;;;;;;;;;5105173;28;20043;-79
2021/01/15 03:55:39;;;;;;;22.52;13.48;;;;;;;;;;5101120;28;20040;-78
2021/01/15 03:58:05;;;;;;;21.17;12.68;;;;;;;;;;5101855;28;20032;-77
2021/01/15 04:01:02;;;;;;;19.65;12.27;;;;;;;;;;5112092;28;20032;-79
2021/01/15 04:06:59;;;;;;;20.92;13.07;;;;;;;;;;5096941;28;20082;-77
2021/01/15 04:09:25;;;;;;;20.73;13.23;;;;;;;;;;5086935;28;20055;-77
2021/01/15 04:11:50;;;;;;;19.08;13.15;;;;;;;;;;5104023;28;20121;-77
2021/01/15 04:14:16;;;;;;;20.23;13.23;;;;;;;;;;5088271;28;20037;-77
2021/01/15 04:16:41;;;;;;;17.50;11.43;;;;;;;;;;5086017;28;20044;-77
2021/01/15 04:19:06;;;;;;;18.95;12.00;;;;;;;;;;5081708;28;20035;-77
2021/01/15 04:21:32;;;;;;;20.58;13.23;;;;;;;;;;5083072;28;20028;-77
2021/01/15 04:23:57;;;;;;;19.30;12.18;;;;;;;;;;5082344;28;20047;-77
2021/01/15 04:26:23;;;;;;;22.20;12.00;;;;;;;;;;5083512;28;20040;-77
2021/01/15 04:28:52;;;;;;;20.23;13.15;;;;;;;;;;5082191;28;20095;-77
2021/01/15 04:31:20;;;;;;;21.98;13.68;;;;;;;;;;5081542;28;20040;-77
2021/01/15 04:33:45;;;;;;;19.00;13.10;;;;;;;;;;5082215;28;20037;-77
2021/01/15 04:36:12;;;;;;;21.02;12.23;;;;;;;;;;5080301;28;20032;-77
2021/01/15 04:38:41;;;;;;;18.30;12.70;;;;;;;;;;5081811;28;20043;-77
2021/01/15 04:41:08;;;;;;;20.38;12.95;;;;;;;;;;5081515;28;20063;-77
2021/01/15 04:43:39;;;;;;;23.05;13.38;;;;;;;;;;5092977;28;20042;-77
2021/01/15 04:46:05;;;;;;;26.88;13.55;;;;;;;;;;5102559;28;20107;-77
2021/01/15 04:48:33;;;;;;;18.60;11.75;;;;;;;;;;5103561;28;20032;-77
2021/01/15 04:51:00;;;;;;;18.75;12.35;;;;;;;;;;5101756;28;20114;-77
2021/01/15 04:53:28;;;;;;;17.25;11.25;;;;;;;;;;5101753;28;20032;-77
2021/01/15 04:55:59;;;;;;;19.10;12.32;;;;;;;;;;5102055;28;20064;-77
2021/01/15 04:58:30;;;;;;;18.13;11.55;;;;;;;;;;5102686;28;20032;-77
2021/01/15 05:00:59;;;;;;;16.30;10.40;;;;;;;;;;5104442;28;20032;-77
2021/01/15 05:03:25;;;;;;;17.48;12.07;;;;;;;;;;5104143;28;20043;-77
2021/01/15 05:05:59;;;;;;;19.13;12.98;;;;;;;;;;5103951;28;20148;-77
2021/01/15 05:08:28;;;;;;;27.02;15.27;;;;;;;;;;5104862;28;20035;-77
2021/01/15 05:10:55;;;;;;;25.73;16.55;;;;;;;;;;5104980;28;20039;-77
2021/01/15 05:13:21;;;;;;;23.58;14.48;;;;;;;;;;5102534;28;20099;-77
2021/01/15 05:15:48;;;;;;;27.10;17.10;;;;;;;;;;5103866;28;20059;-77
2021/01/15 05:18:15;;;;;;;25.17;15.90;;;;;;;;;;5102022;28;20036;-77
2021/01/15 05:20:41;;;;;;;20.15;14.60;;;;;;;;;;5101280;28;20516;-77
2021/01/15 05:23:08;;;;;;;29.35;16.58;;;;;;;;;;5101425;28;20024;-77
2021/01/15 05:25:46;;;;;;;29.17;19.85;;;;;;;;;;5100777;28;20149;-77
2021/01/15 05:28:15;;;;;;;30.95;19.23;;;;;;;;;;5101962;28;20036;-77
2021/01/15 05:30:41;;;;;;;26.73;17.85;;;;;;;;;;5099876;28;20115;-77
2021/01/15 05:33:15;;;;;;;30.67;18.70;;;;;;;;;;5101595;28;20071;-77
2021/01/15 05:35:50;;;;;;;29.52;17.33;;;;;;;;;;5102965;28;20111;-77
2021/01/15 05:38:17;;;;;;;27.65;16.98;;;;;;;;;;5103450;28;20040;-77
2021/01/15 05:40:47;;;;;;;29.15;19.38;;;;;;;;;;5101856;28;20152;-77
2021/01/15 05:43:22;;;;;;;25.52;17.23;;;;;;;;;;5094684;28;20486;-77
2021/01/15 05:46:09;;;;;;;22.98;16.30;;;;;;;;;;5094692;28;20041;-77
2021/01/15 05:48:36;;;;;;;27.02;16.00;;;;;;;;;;5094804;28;20071;-77
2021/01/15 05:51:01;;;;;;;24.58;16.25;;;;;;;;;;5096247;28;20028;-77
2021/01/15 05:53:40;;;;;;;23.33;16.27;;;;;;;;;;5096516;28;20040;-77
2021/01/15 05:56:06;;;;;;;37.80;21.27;;;;;;;;;;5095260;28;20047;-77
2021/01/15 05:58:31;;;;;;;31.13;18.77;;;;;;;;;;5097126;28;20032;-77
2021/01/15 06:00:57;;;;;;;26.90;17.35;;;;;;;;;;5096771;28;20089;-77
2021/01/15 06:03:23;;;;;;;27.02;17.92;;;;;;;;;;5097070;28;20047;-77
2021/01/15 06:05:50;;;;;;;30.85;18.20;;;;;;;;;;5096717;28;20036;-77
2021/01/15 06:08:16;;;;;;;27.73;16.75;;;;;;;;;;5097683;28;20043;-77
2021/01/15 06:10:44;;;;;;;24.13;15.88;;;;;;;;;;5097732;28;20459;-77
2021/01/15 06:13:10;;;;;;;28.48;17.52;;;;;;;;;;5096452;28;20032;-77
2021/01/15 06:15:46;;;;;;;24.58;16.45;;;;;;;;;;5095994;28;20039;-77
2021/01/15 06:18:15;;;;;;;23.52;15.50;;;;;;;;;;5097197;28;20092;-77
2021/01/15 06:20:43;;;;;;;24.10;15.55;;;;;;;;;;5096750;28;20117;-77
2021/01/15 06:23:12;;;;;;;26.38;16.45;;;;;;;;;;5096185;28;20028;-77
2021/01/15 06:25:56;;;;;;;26.45;16.73;;;;;;;;;;5096919;28;20039;-77
2021/01/15 06:28:32;;;;;;;24.67;16.13;;;;;;;;;;5095409;28;20036;-77
2021/01/15 06:30:59;;;;;;;24.13;15.52;;;;;;;;;;5096697;28;20107;-77
2021/01/15 06:33:25;;;;;;;23.48;15.27;;;;;;;;;;5096867;28;20042;-77
2021/01/15 06:35:50;;;;;;;24.00;14.90;;;;;;;;;;5095447;28;20036;-77
2021/01/15 06:38:16;;;;;;;28.88;17.10;;;;;;;;;;5095541;28;20095;-77
2021/01/15 06:40:44;;;;;;;30.70;15.70;;;;;;;;;;5095832;28;20028;-77
2021/01/15 06:43:11;;;;;;;22.45;15.18;;;;;;;;;;5096050;28;20039;-77
2021/01/15 06:45:42;;;;;;;25.77;15.98;;;;;;;;;;5096494;28;20131;-77
2021/01/15 06:48:13;;;;;;;24.38;15.88;;;;;;;;;;5096877;28;20047;-77
2021/01/15 06:50:42;;;;;;;22.75;15.02;;;;;;;;;;5095908;28;20042;-77
2021/01/15 06:53:26;;;;;;;29.33;17.98;;;;;;;;;;5097005;28;20061;-77
2021/01/15 06:55:57;;;;;;;29.25;16.98;;;;;;;;;;5096496;28;20039;-77
2021/01/15 06:58:27;;;;;;;27.88;17.55;;;;;;;;;;5096150;28;20040;-77
2021/01/15 07:01:17;;;;;;;25.42;15.60;;;;;;;;;;5096192;28;20020;-77
2021/01/15 07:04:01;;;;;;;25.45;15.98;;;;;;;;;;5096499;28;20533;-76
2021/01/15 07:06:28;;;;;;;27.35;17.02;;;;;;;;;;5096117;28;20097;-77
2021/01/15 07:08:55;;;;;;;22.55;14.73;;;;;;;;;;5095705;28;20541;-76
2021/01/15 07:11:22;;;;;;;22.27;13.88;;;;;;;;;;5096387;28;20047;-76
2021/01/15 07:13:52;;;;;;;24.10;14.98;;;;;;;;;;5095851;28;20024;-76
2021/01/15 07:16:30;;;;;;;27.27;15.25;;;;;;;;;;5096072;28;20156;-76
2021/01/15 07:19:05;;;;;;;23.48;14.65;;;;;;;;;;5095017;28;20052;-76
2021/01/15 07:21:34;;;;;;;24.40;15.07;;;;;;;;;;5097436;28;20040;-78
2021/01/15 07:24:04;;;;;;;22.55;15.00;;;;;;;;;;5095256;28;20035;-77
2021/01/15 07:26:40;;;;;;;20.30;14.32;;;;;;;;;;5098568;28;20493;-77
2021/01/15 07:29:08;;;;;;;22.20;14.68;;;;;;;;;;5098119;28;20043;-77
2021/01/15 07:31:37;;;;;;;27.83;17.67;;;;;;;;;;5097782;28;20071;-77
2021/01/15 07:34:06;;;;;;;27.52;16.50;;;;;;;;;;5102468;28;20036;-79
2021/01/15 07:36:39;;;;;;;22.42;14.90;;;;;;;;;;5095274;28;20038;-77
2021/01/15 07:39:11;;;;;;;24.65;15.80;;;;;;;;;;5101972;28;20036;-78
2021/01/15 07:41:48;;;;;;;30.23;16.65;;;;;;;;;;5100010;28;20031;-77
2021/01/15 07:44:23;;;;;;;28.77;17.40;;;;;;;;;;5102376;28;20105;-78
2021/01/15 07:47:01;;;;;;;27.83;17.00;;;;;;;;;;5101050;28;20036;-79
2021/01/15 07:49:44;;;;;;;24.20;15.93;;;;;;;;;;5096390;28;20032;-78
2021/01/15 07:52:10;;;;;;;24.38;16.92;;;;;;;;;;5076138;28;20036;-77
2021/01/15 07:55:00;;;;;;;25.60;14.00;;;;;;;;;;5077728;28;20036;-77
2021/01/15 07:57:27;;;;;;;22.15;14.93;;;;;;;;;;5079689;28;20402;-79
2021/01/15 07:59:53;;;;;;;21.58;14.65;;;;;;;;;;5076303;28;20170;-77
2021/01/15 08:02:19;;;;;;;21.42;14.05;;;;;;;;;;5075568;28;20490;-77
2021/01/15 08:04:45;;;;;;;19.10;12.80;;;;;;;;;;5075355;28;20129;-76
2021/01/15 08:07:10;;;;;;;22.33;13.40;;;;;;;;;;5075038;28;20051;-77
2021/01/15 08:09:40;;;;;;;20.65;13.57;;;;;;;;;;5076412;28;20040;-77
2021/01/15 08:12:05;;;;;;;21.13;14.02;;;;;;;;;;5077471;28;20040;-75
2021/01/15 08:14:32;;;;;;;19.20;13.23;;;;;;;;;;5096264;28;20063;-75
2021/01/15 08:16:57;;;;;;;23.25;15.80;;;;;;;;;;5096677;28;20036;-75
2021/01/15 08:19:24;;;;;;;23.83;14.57;;;;;;;;;;5096145;28;20035;-75
2021/01/15 08:21:51;;;;;;;22.42;14.90;;;;;;;;;;5097163;28;20036;-74
2021/01/15 08:24:22;;;;;;;45.47;24.90;;;;;;;;;;5096535;28;20042;-76
2021/01/15 08:26:55;;;;;;;34.13;20.42;;;;;;;;;;5095678;28;20032;-76
2021/01/15 08:29:22;;;;;;;36.72;20.05;;;;;;;;;;5096258;28;20371;-76
2021/01/15 08:31:57;;;;;;;29.70;17.08;;;;;;;;;;5095890;28;20114;-75
2021/01/15 08:34:30;;;;;;;29.05;17.90;;;;;;;;;;5095859;28;20462;-76
2021/01/15 08:36:58;;;;;;;26.73;16.27;;;;;;;;;;5096212;28;20044;-74
2021/01/15 08:39:24;;;;;;;25.73;15.55;;;;;;;;;;5096030;28;20470;-74
2021/01/15 08:41:57;;;;;;;22.63;14.65;;;;;;;;;;5094936;28;20032;-76
2021/01/15 08:44:23;;;;;;;23.77;14.65;;;;;;;;;;5095474;28;20048;-76
2021/01/15 08:46:53;;;;;;;24.60;14.80;;;;;;;;;;5095944;28;20060;-76
2021/01/15 08:49:18;;;;;;;23.23;14.02;;;;;;;;;;5095642;28;20092;-77
2021/01/15 08:51:50;;;;;;;21.90;14.50;;;;;;;;;;5095486;28;20126;-76
2021/01/15 08:54:17;;;;;;;22.15;14.65;;;;;;;;;;5094856;28;20040;-77
2021/01/15 08:56:45;;;;;;;24.92;14.18;;;;;;;;;;5095436;28;20040;-77
2021/01/15 08:59:12;;;;;;;19.25;12.63;;;;;;;;;;5095611;28;20032;-77
2021/01/15 09:01:42;;;;;;;18.73;11.65;;;;;;;;;;5095434;28;20366;-76
2021/01/15 09:04:10;;;;;;;15.70;10.57;;;;;;;;;;5094849;28;20484;-76
2021/01/15 09:06:36;;;;;;;14.90;10.65;;;;;;;;;;5094185;28;20035;-76
2021/01/15 09:09:08;;;;;;;14.60;10.38;;;;;;;;;;5095357;28;20107;-76
2021/01/15 09:11:36;;;;;;;13.95;9.82;;;;;;;;;;5094484;28;20036;-75
2021/01/15 09:14:03;;;;;;;22.15;14.18;;;;;;;;;;5094505;28;20032;-76
2021/01/15 09:16:29;;;;;;;26.90;15.07;;;;;;;;;;5094973;28;20061;-76
2021/01/15 09:19:03;;;;;;;19.98;13.27;;;;;;;;;;5077025;28;20515;-76
2021/01/15 09:21:29;;;;;;;16.90;11.32;;;;;;;;;;5095233;28;20036;-76
2021/01/15 09:23:54;;;;;;;15.70;11.02;;;;;;;;;;5093972;28;20042;-76
2021/01/15 09:26:20;;;;;;;15.70;10.45;;;;;;;;;;5095066;28;20036;-76
2021/01/15 09:28:45;;;;;;;20.77;12.90;;;;;;;;;;5094878;28;20445;-74
2021/01/15 09:31:11;;;;;;;16.73;11.88;;;;;;;;;;5093401;28;20089;-74
2021/01/15 09:33:46;;;;;;;21.30;13.15;;;;;;;;;;5095046;28;20071;-74
2021/01/15 09:36:25;;;;;;;19.98;12.77;;;;;;;;;;5094819;28;20036;-74
2021/01/15 09:38:52;;;;;;;15.95;11.45;;;;;;;;;;5094756;28;20457;-75
2021/01/15 09:41:17;;;;;;;18.40;12.68;;;;;;;;;;5094778;28;20023;-76
2021/01/15 09:43:43;;;;;;;17.77;12.25;;;;;;;;;;5094605;28;20119;-75
2021/01/15 09:46:18;;;;;;;15.05;11.02;;;;;;;;;;5092672;28;20040;-76
2021/01/15 09:48:43;;;;;;;13.68;8.73;;;;;;;;;;5094703;28;20024;-76
2021/01/15 09:51:09;;;;;;;12.05;8.65;;;;;;;;;;5093224;28;20397;-76
2021/01/15 09:53:34;;;;;;;11.57;7.88;;;;;;;;;;5092414;28;20044;-75
2021/01/15 09:55:59;;;;;;;11.43;8.18;;;;;;;;;;5093315;28;20059;-76
2021/01/15 09:58:27;;;;;;;12.23;8.45;;;;;;;;;;5094342;28;20036;-76
2021/01/15 10:00:53;;;;;;;10.32;7.47;;;;;;;;;;5093776;28;20068;-76
2021/01/15 10:03:18;;;;;;;10.60;7.40;;;;;;;;;;5094321;28;20061;-74
2021/01/15 10:05:44;;;;;;;11.65;7.72;;;;;;;;;;5093050;28;20043;-75
2021/01/15 10:08:09;;;;;;;10.98;7.50;;;;;;;;;;5094403;28;20032;-75
2021/01/15 10:10:34;;;;;;;12.70;8.43;;;;;;;;;;5094102;28;20397;-75
2021/01/15 10:13:00;;;;;;;11.80;8.30;;;;;;;;;;5094143;28;20115;-75
2021/01/15 10:15:25;;;;;;;12.77;8.23;;;;;;;;;;5093712;28;20044;-75
2021/01/15 10:17:50;;;;;;;12.52;9.18;;;;;;;;;;5093279;28;20050;-77
2021/01/15 10:20:16;;;;;;;12.38;8.48;;;;;;;;;;5094113;28;20115;-75
2021/01/15 10:22:42;;;;;;;12.63;8.10;;;;;;;;;;5094027;28;20095;-76
2021/01/15 10:25:08;;;;;;;10.77;7.43;;;;;;;;;;5093959;28;20028;-76
2021/01/15 10:27:34;;;;;;;13.18;8.43;;;;;;;;;;5092403;28;20440;-75
2021/01/15 10:29:59;;;;;;;12.40;8.48;;;;;;;;;;5093471;28;20040;-75
2021/01/15 10:32:25;;;;;;;11.93;8.32;;;;;;;;;;5093764;28;20046;-75
2021/01/15 10:34:50;;;;;;;13.20;7.35;;;;;;;;;;5094029;28;20130;-74
2021/01/15 10:37:15;;;;;;;12.77;8.43;;;;;;;;;;5093888;28;20047;-75
2021/01/15 10:39:41;;;;;;;14.52;8.82;;;;;;;;;;5092593;28;20036;-74
2021/01/15 10:42:06;;;;;;;13.48;9.00;;;;;;;;;;5093687;28;20032;-74
2021/01/15 10:44:31;;;;;;;15.32;9.00;;;;;;;;;;5093351;28;20055;-73
2021/01/15 10:46:57;;;;;;;12.18;7.82;;;;;;;;;;5093615;28;20032;-74
2021/01/15 10:49:23;;;;;;;14.65;8.70;;;;;;;;;;5093398;28;20066;-75
2021/01/15 10:51:54;;;;;;;14.50;9.18;;;;;;;;;;5093397;28;20093;-76
2021/01/15 10:54:20;;;;;;;13.95;9.00;;;;;;;;;;5093577;28;20126;-76
2021/01/15 10:56:47;;;;;;;13.10;8.45;;;;;;;;;;5093286;28;20111;-76
2021/01/15 10:59:13;;;;;;;11.93;8.60;;;;;;;;;;5093399;28;20119;-76
2021/01/15 11:01:40;;;;;;;12.02;8.45;;;;;;;;;;5093045;28;20122;-76
2021/01/15 11:04:06;;;;;;;16.30;9.52;;;;;;;;;;5093530;28;20016;-76
2021/01/15 11:06:33;;;;;;;13.00;8.10;;;;;;;;;;5093309;28;20032;-77
2021/01/15 11:08:59;;;;;;;12.65;8.35;;;;;;;;;;5092992;28;20382;-75
2021/01/15 11:11:24;;;;;;;12.13;8.32;;;;;;;;;;5093151;28;20085;-76
2021/01/15 11:13:50;;;;;;;15.27;9.90;;;;;;;;;;5093512;28;20509;-76
2021/01/15 11:16:15;;;;;;;14.80;9.32;;;;;;;;;;5093096;28;20040;-74
2021/01/15 11:18:41;;;;;;;14.63;9.80;;;;;;;;;;5093041;28;20066;-75
2021/01/15 11:21:07;;;;;;;11.80;7.95;;;;;;;;;;5092954;28;20028;-75
2021/01/15 11:23:33;;;;;;;14.45;8.45;;;;;;;;;;5093215;28;20084;-74
2021/01/15 11:25:59;;;;;;;13.25;9.07;;;;;;;;;;5093136;28;20032;-74
2021/01/15 11:28:24;;;;;;;14.13;9.32;;;;;;;;;;5095098;28;20490;-74
2021/01/15 11:30:49;;;;;;;12.30;9.05;;;;;;;;;;5096886;28;20039;-74
2021/01/15 11:33:15;;;;;;;16.02;10.52;;;;;;;;;;5097056;28;20075;-78
2021/01/15 11:35:40;;;;;;;15.30;10.25;;;;;;;;;;5097437;28;20073;-73
2021/01/15 11:38:06;;;;;;;14.80;10.30;;;;;;;;;;5095595;28;20123;-73
2021/01/15 11:40:31;;;;;;;13.90;9.55;;;;;;;;;;5097053;28;20034;-73
2021/01/15 11:42:58;;;;;;;16.55;10.27;;;;;;;;;;5096974;28;20056;-73
2021/01/15 11:45:24;;;;;;;14.80;10.27;;;;;;;;;;5096411;28;20044;-73
2021/01/15 11:47:53;;;;;;;13.73;9.98;;;;;;;;;;5095653;28;20123;-73
2021/01/15 11:50:23;;;;;;;15.45;10.68;;;;;;;;;;5096804;28;20046;-73
2021/01/15 11:52:55;;;;;;;13.77;10.23;;;;;;;;;;5096774;28;20028;-73
2021/01/15 11:55:21;;;;;;;18.10;10.63;;;;;;;;;;5096807;28;20115;-73
2021/01/15 11:57:50;;;;;;;14.88;9.57;;;;;;;;;;5096475;28;20040;-73
2021/01/15 12:00:17;;;;;;;14.10;9.43;;;;;;;;;;5096071;28;20035;-73
2021/01/15 12:02:42;;;;;;;16.63;10.15;;;;;;;;;;5096582;28;20442;-73
2021/01/15 12:05:08;;;;;;;14.43;9.52;;;;;;;;;;5096514;28;20036;-73
2021/01/15 12:07:34;;;;;;;14.68;9.88;;;;;;;;;;5096424;28;20036;-73
2021/01/15 12:09:59;;;;;;;16.75;10.68;;;;;;;;;;5096154;28;20482;-73
2021/01/15 12:12:24;;;;;;;16.63;11.63;;;;;;;;;;5096441;28;20043;-73
2021/01/15 12:14:50;;;;;;;15.18;10.63;;;;;;;;;;5096285;28;20075;-73
2021/01/15 12:17:15;;;;;;;17.00;10.93;;;;;;;;;;5096526;28;20081;-73
2021/01/15 12:19:40;;;;;;;16.10;10.70;;;;;;;;;;5096224;28;20028;-73
2021/01/15 12:22:06;;;;;;;14.77;10.45;;;;;;;;;;5096288;28;20534;-73
2021/01/15 12:24:31;;;;;;;19.20;11.15;;;;;;;;;;5096384;28;20039;-73
2021/01/15 12:26:59;;;;;;;15.07;10.82;;;;;;;;;;5095782;28;20024;-73
2021/01/15 12:29:26;;;;;;;13.70;9.80;;;;;;;;;;5094968;28;20389;-72
2021/01/15 12:31:55;;;;;;;17.95;11.18;;;;;;;;;;5095898;28;20040;-73
2021/01/15 12:34:20;;;;;;;16.50;10.75;;;;;;;;;;5094805;28;20043;-74
2021/01/15 12:36:46;;;;;;;14.00;10.45;;;;;;;;;;5096029;28;20035;-74
2021/01/15 12:39:11;;;;;;;12.20;9.23;;;;;;;;;;5093516;28;20397;-74
2021/01/15 12:41:36;;;;;;;14.43;9.50;;;;;;;;;;5095580;28;20035;-74
2021/01/15 12:44:02;;;;;;;14.27;9.40;;;;;;;;;;5094215;28;20092;-74
2021/01/15 12:46:28;;;;;;;14.27;9.82;;;;;;;;;;5095507;28;20047;-74
2021/01/15 12:48:53;;;;;;;15.02;9.82;;;;;;;;;;5094270;28;20544;-74
2021/01/15 12:51:18;;;;;;;13.90;10.02;;;;;;;;;;5095632;28;20047;-73
2021/01/15 12:53:44;;;;;;;15.90;9.63;;;;;;;;;;5095611;28;20051;-73
2021/01/15 12:56:09;;;;;;;15.88;10.00;;;;;;;;;;5095901;28;20047;-73
2021/01/15 12:58:34;;;;;;;15.70;10.65;;;;;;;;;;5095372;28;20036;-73
2021/01/15 13:01:00;;;;;;;18.17;10.95;;;;;;;;;;5095232;28;20032;-73
2021/01/15 13:03:25;;;;;;;16.88;11.48;;;;;;;;;;5095559;28;20066;-73
2021/01/15 13:05:51;;;;;;;17.98;11.20;;;;;;;;;;5095455;28;20028;-73
2021/01/15 13:08:16;;;;;;;17.52;11.35;;;;;;;;;;5095495;28;20093;-73
2021/01/15 13:10:49;;;;;;;15.32;11.02;;;;;;;;;;5095405;28;20093;-73
2021/01/15 13:13:14;;;;;;;19.60;13.27;;;;;;;;;;5093098;28;20462;-73
2021/01/15 13:15:40;;;;;;;25.48;14.45;;;;;;;;;;5094941;28;20119;-73
2021/01/15 13:18:05;;;;;;;25.13;13.32;;;;;;;;;;5094944;28;20062;-73
2021/01/15 13:20:31;;;;;;;17.38;12.30;;;;;;;;;;5093917;28;20127;-73
2021/01/15 13:23:02;;;;;;;19.73;11.68;;;;;;;;;;5095310;28;20047;-73
2021/01/15 13:25:28;;;;;;;17.58;11.68;;;;;;;;;;5095146;28;20036;-73
2021/01/15 13:27:55;;;;;;;19.65;11.90;;;;;;;;;;5094961;28;20039;-73
2021/01/15 13:30:20;;;;;;;18.67;12.68;;;;;;;;;;5094690;28;20031;-73
2021/01/15 13:32:47;;;;;;;18.65;12.30;;;;;;;;;;5094841;28;20036;-73
2021/01/15 13:35:13;;;;;;;15.63;10.98;;;;;;;;;;5095028;28;20393;-73
2021/01/15 13:37:39;;;;;;;16.42;11.77;;;;;;;;;;5094791;28;20040;-73
2021/01/15 13:40:12;;;;;;;15.95;11.18;;;;;;;;;;5094737;28;20485;-73
2021/01/15 13:42:39;;;;;;;14.30;9.70;;;;;;;;;;5094703;28;20032;-73
2021/01/15 13:45:09;;;;;;;16.30;10.73;;;;;;;;;;5093008;28;20076;-73
2021/01/15 13:47:35;;;;;;;18.92;11.68;;;;;;;;;;5093641;28;20044;-73
2021/01/15 13:50:19;;;;;;;18.27;10.65;;;;;;;;;;5094448;28;20549;-72
2021/01/15 13:52:45;;;;;;;20.90;12.20;;;;;;;;;;5094581;28;20035;-73
2021/01/15 13:55:10;;;;;;;18.17;11.25;;;;;;;;;;5094544;28;20035;-73
2021/01/15 13:57:40;;;;;;;15.70;11.00;;;;;;;;;;5094350;28;20373;-73
2021/01/15 14:00:06;;;;;;;19.77;12.23;;;;;;;;;;5094005;28;20526;-73
2021/01/15 14:02:44;;;;;;;17.98;11.88;;;;;;;;;;5094619;28;20146;-73
2021/01/15 14:05:10;;;;;;;16.77;11.80;;;;;;;;;;5094364;28;20036;-73
2021/01/15 14:07:37;;;;;;;21.55;13.00;;;;;;;;;;5094281;28;20063;-73
2021/01/15 14:10:08;;;;;;;18.65;12.23;;;;;;;;;;5093947;28;20038;-73
2021/01/15 14:12:33;;;;;;;17.73;12.25;;;;;;;;;;5094177;28;20035;-73
2021/01/15 14:14:59;;;;;;;19.02;11.40;;;;;;;;;;5094275;28;20393;-73
2021/01/15 14:17:24;;;;;;;17.08;11.68;;;;;;;;;;5092678;28;20465;-73
2021/01/15 14:19:51;;;;;;;19.95;12.65;;;;;;;;;;5092683;28;20473;-73
2021/01/15 14:22:16;;;;;;;17.30;11.13;;;;;;;;;;5094080;28;20523;-73
2021/01/15 14:24:41;;;;;;;18.95;11.40;;;;;;;;;;5093731;28;20028;-73
2021/01/15 14:27:06;;;;;;;17.92;11.63;;;;;;;;;;5093920;28;20491;-73
2021/01/15 14:29:32;;;;;;;15.13;10.77;;;;;;;;;;5093883;28;20036;-73